Time;durP1;ratioP1;P1;durP2;ratioP2;P2;SDS_P1;SDS_P2;PMS_P1;PMS_P2;Temp;Humidity;BMP_temperature;BMP_pressure;BME280_temperature;BME280_humidity;BME280_pressure;Samples;Min_cycle;Max_cycle;Signal;HPM_P1;HPM_P2
2023/12/20 00:00:53;;;;;;;18.83;8.07;;;;;;;6.29;100.00;101226.75;5009813;28;20038;-73
2023/12/20 00:03:19;;;;;;;17.45;9.05;;;;;;;6.33;100.00;101230.72;5007529;28;20045;-71
2023/12/20 00:05:45;;;;;;;20.75;8.48;;;;;;;6.38;100.00;101246.63;5012347;28;20045;-73
2023/12/20 00:08:11;;;;;;;17.48;7.85;;;;;;;6.34;100.00;101239.28;5008301;28;20040;-71
2023/12/20 00:10:36;;;;;;;15.88;7.82;;;;;;;6.28;100.00;101237.16;5014539;28;20037;-72
2023/12/20 00:13:02;;;;;;;19.58;8.35;;;;;;;6.25;100.00;101240.78;5011839;28;20059;-73
2023/12/20 00:15:27;;;;;;;16.65;7.97;;;;;;;6.28;100.00;101243.13;5012594;28;20689;-72
2023/12/20 00:17:53;;;;;;;18.98;9.05;;;;;;;6.32;100.00;101248.88;4999123;28;20030;-73
2023/12/20 00:20:18;;;;;;;17.65;8.23;;;;;;;6.30;100.00;101246.41;5009388;28;20166;-73
2023/12/20 00:22:44;;;;;;;22.30;8.65;;;;;;;6.33;100.00;101247.91;5011435;28;20046;-73
2023/12/20 00:25:09;;;;;;;17.70;7.85;;;;;;;6.42;100.00;101244.63;5011203;28;20041;-73
2023/12/20 00:27:35;;;;;;;19.17;7.90;;;;;;;6.33;100.00;101251.34;5013065;28;20120;-73
2023/12/20 00:30:00;;;;;;;17.08;7.35;;;;;;;6.25;100.00;101258.81;5011468;28;20507;-73
2023/12/20 00:32:25;;;;;;;19.92;6.97;;;;;;;6.23;100.00;101260.69;5009404;28;20049;-73
2023/12/20 00:34:51;;;;;;;15.43;6.75;;;;;;;6.26;100.00;101252.72;5008826;28;20049;-73
2023/12/20 00:37:16;;;;;;;16.15;6.68;;;;;;;6.27;100.00;101251.78;5015522;28;20072;-73
2023/12/20 00:39:42;;;;;;;18.98;6.78;;;;;;;6.23;100.00;101255.53;5010948;28;20042;-73
2023/12/20 00:42:07;;;;;;;15.50;6.53;;;;;;;6.10;100.00;101260.78;5006866;28;20068;-70
2023/12/20 00:44:33;;;;;;;18.23;7.68;;;;;;;6.24;100.00;101276.03;5001610;28;20030;-73
2023/12/20 00:46:58;;;;;;;14.63;7.00;;;;;;;6.21;100.00;101283.16;5012352;28;20029;-72
2023/12/20 00:49:24;;;;;;;18.98;7.47;;;;;;;6.22;100.00;101279.66;5012729;28;20507;-73
2023/12/20 00:51:50;;;;;;;21.85;9.10;;;;;;;6.17;100.00;101269.69;5011187;28;20046;-73
2023/12/20 00:54:16;;;;;;;21.33;9.95;;;;;;;6.29;100.00;101275.69;5013092;28;20026;-73
2023/12/20 00:56:41;;;;;;;21.35;10.68;;;;;;;6.29;100.00;101267.97;5010550;28;20095;-73
2023/12/20 00:59:07;;;;;;;28.45;11.35;;;;;;;6.16;100.00;101274.94;5014557;28;20033;-73
2023/12/20 01:01:33;;;;;;;27.30;11.85;;;;;;;6.20;100.00;101273.81;5004917;28;20053;-73
2023/12/20 01:03:58;;;;;;;27.13;12.32;;;;;;;6.21;100.00;101268.50;5004918;28;20045;-73
2023/12/20 01:06:24;;;;;;;27.85;12.57;;;;;;;6.12;100.00;101266.66;5007290;28;20087;-73
2023/12/20 01:08:49;;;;;;;29.58;13.75;;;;;;;6.14;100.00;101271.69;5007714;28;20038;-73
2023/12/20 01:11:15;;;;;;;35.60;15.55;;;;;;;6.17;100.00;101282.56;4992161;28;20923;-73
2023/12/20 01:13:40;;;;;;;30.15;13.90;;;;;;;6.09;100.00;101274.59;5014733;28;20041;-73
2023/12/20 01:16:06;;;;;;;30.23;13.05;;;;;;;6.14;100.00;101287.13;5011355;28;20071;-73
2023/12/20 01:18:31;;;;;;;30.48;13.07;;;;;;;6.14;100.00;101282.81;5011367;28;20040;-73
2023/12/20 01:21:02;;;;;;;25.45;12.45;;;;;;;6.05;100.00;101283.50;5004024;28;20042;-73
2023/12/20 01:23:27;;;;;;;31.65;11.18;;;;;;;6.03;100.00;101283.59;5000249;28;20116;-72
2023/12/20 01:25:53;;;;;;;31.17;11.38;;;;;;;6.03;100.00;101287.94;5001016;28;20041;-72
2023/12/20 01:28:19;;;;;;;23.33;9.95;;;;;;;5.91;100.00;101281.09;4998341;28;20068;-73
2023/12/20 01:30:44;;;;;;;32.72;11.43;;;;;;;5.90;100.00;101282.84;5001922;28;20128;-73
2023/12/20 01:33:10;;;;;;;31.20;9.38;;;;;;;5.85;100.00;101290.09;5000770;28;22139;-70
2023/12/20 01:35:35;;;;;;;18.42;10.13;;;;;;;5.89;100.00;101283.78;5001440;28;20041;-73
2023/12/20 01:38:01;;;;;;;19.40;9.05;;;;;;;5.89;100.00;101288.91;4997692;28;20041;-72
2023/12/20 01:40:26;;;;;;;22.20;9.00;;;;;;;5.82;100.00;101292.88;4999265;28;20042;-73
2023/12/20 01:43:08;;;;;;;19.08;8.15;;;;;;;5.79;100.00;101303.41;5002442;28;20042;-71
2023/12/20 01:45:34;;;;;;;18.25;8.40;;;;;;;5.63;100.00;101294.25;5000425;28;20050;-72
2023/12/20 01:48:01;;;;;;;29.25;8.75;;;;;;;5.63;100.00;101291.69;4999580;28;20044;-72
2023/12/20 01:50:27;;;;;;;22.48;7.85;;;;;;;5.64;100.00;101284.75;5004104;28;20064;-72
2023/12/20 01:52:57;;;;;;;24.88;8.85;;;;;;;5.62;100.00;101278.91;5004529;28;20062;-72
2023/12/20 01:55:23;;;;;;;20.98;7.82;;;;;;;5.44;100.00;101284.47;4992732;28;20046;-73
2023/12/20 01:57:49;;;;;;;16.98;6.75;;;;;;;5.44;100.00;101284.47;4996565;28;20045;-73
2023/12/20 02:00:15;;;;;;;31.27;6.95;;;;;;;5.48;100.00;101297.91;4986535;28;20049;-73
2023/12/20 02:02:41;;;;;;;19.10;5.88;;;;;;;5.41;100.00;101302.69;4975225;28;20041;-71
2023/12/20 02:05:07;;;;;;;25.00;6.22;;;;;;;5.33;100.00;101307.56;4999979;28;20037;-72
2023/12/20 02:07:34;;;;;;;14.73;5.00;;;;;;;5.31;100.00;101303.44;4986549;28;20076;-72
2023/12/20 02:09:59;;;;;;;22.92;5.40;;;;;;;5.34;100.00;101304.03;4986919;28;20064;-72
2023/12/20 02:12:25;;;;;;;15.32;5.80;;;;;;;5.32;100.00;101302.53;5002408;28;20405;-73
2023/12/20 02:14:50;;;;;;;24.67;5.15;;;;;;;5.22;100.00;101285.19;5018195;28;20041;-70
2023/12/20 02:17:16;;;;;;;24.98;4.13;;;;;;;5.18;100.00;101286.34;5002327;28;20042;-72
2023/12/20 02:19:41;;;;;;;21.05;4.07;;;;;;;5.24;100.00;101293.59;4999126;28;20098;-72
2023/12/20 02:22:11;;;;;;;16.92;3.03;;;;;;;5.18;100.00;101300.91;5003797;28;20045;-73
2023/12/20 02:24:37;;;;;;;26.08;3.50;;;;;;;5.20;100.00;101305.03;5002543;28;20231;-73
2023/12/20 02:27:05;;;;;;;17.10;3.08;;;;;;;5.14;100.00;101304.63;5003726;28;20030;-73
2023/12/20 02:29:30;;;;;;;22.23;3.30;;;;;;;5.14;100.00;101310.63;5004713;28;20045;-71
2023/12/20 02:31:56;;;;;;;17.45;2.80;;;;;;;5.10;100.00;101313.50;5003714;28;20051;-72
2023/12/20 02:34:21;;;;;;;16.65;3.53;;;;;;;5.12;100.00;101307.31;5013236;28;20040;-73
2023/12/20 02:36:47;;;;;;;22.30;4.18;;;;;;;5.05;100.00;101311.25;5004212;28;20354;-73
2023/12/20 02:39:13;;;;;;;18.75;3.03;;;;;;;5.02;100.00;101312.28;5009800;28;20053;-72
2023/12/20 02:41:38;;;;;;;18.80;2.85;;;;;;;5.00;100.00;101309.00;5000842;28;20042;-72
2023/12/20 02:44:03;;;;;;;16.45;3.13;;;;;;;5.15;100.00;101314.81;5003186;28;20049;-73
2023/12/20 02:46:29;;;;;;;23.08;2.78;;;;;;;5.03;100.00;101313.13;5002225;28;20038;-73
2023/12/20 02:48:54;;;;;;;21.15;3.75;;;;;;;5.02;100.00;101308.91;5003096;28;20030;-71
2023/12/20 02:51:20;;;;;;;23.65;3.10;;;;;;;4.99;100.00;101309.09;5004871;28;20038;-71
2023/12/20 02:53:46;;;;;;;11.50;2.30;;;;;;;4.94;100.00;101311.19;5004413;28;20026;-73
2023/12/20 02:56:11;;;;;;;16.00;3.53;;;;;;;4.96;100.00;101302.44;5002067;28;20445;-72
2023/12/20 02:58:36;;;;;;;24.88;3.00;;;;;;;4.86;100.00;101301.44;5002382;28;20456;-73
2023/12/20 03:01:02;;;;;;;20.92;2.78;;;;;;;4.92;100.00;101307.91;5001772;28;20128;-72
2023/12/20 03:03:27;;;;;;;24.00;3.38;;;;;;;4.89;100.00;101316.63;5002364;28;20113;-73
2023/12/20 03:05:53;;;;;;;24.67;4.50;;;;;;;4.80;100.00;101312.97;5002438;28;20049;-73
2023/12/20 03:08:18;;;;;;;18.58;3.22;;;;;;;4.73;100.00;101321.19;4998007;28;20097;-73
2023/12/20 03:10:44;;;;;;;28.33;3.45;;;;;;;4.73;100.00;101323.75;5000044;28;20042;-72
2023/12/20 03:13:09;;;;;;;21.90;4.60;;;;;;;4.74;100.00;101303.09;5001610;28;20106;-72
2023/12/20 03:15:35;;;;;;;17.30;3.53;;;;;;;4.81;100.00;101319.75;4984930;28;20037;-72
2023/12/20 03:18:00;;;;;;;15.02;3.40;;;;;;;4.68;100.00;101311.22;5003793;28;20108;-73
2023/12/20 03:20:26;;;;;;;27.15;3.60;;;;;;;4.71;100.00;101308.47;4986581;28;20049;-72
2023/12/20 03:22:51;;;;;;;24.67;3.97;;;;;;;4.61;100.00;101308.25;5001965;28;20668;-72
2023/12/20 03:25:17;;;;;;;21.15;4.00;;;;;;;4.60;100.00;101310.94;4987949;28;20056;-73
2023/12/20 03:27:43;;;;;;;21.02;3.80;;;;;;;4.59;100.00;101312.66;5002157;28;20088;-73
2023/12/20 03:30:08;;;;;;;15.05;3.75;;;;;;;4.66;100.00;101306.19;5006094;28;20085;-71
2023/12/20 03:32:34;;;;;;;21.45;4.55;;;;;;;4.63;100.00;101295.31;4989038;28;20500;-72
2023/12/20 03:34:59;;;;;;;21.48;3.95;;;;;;;4.57;100.00;101293.97;5004503;28;20050;-73
2023/12/20 03:37:25;;;;;;;28.30;5.15;;;;;;;4.61;100.00;101290.25;5002599;28;20045;-73
2023/12/20 03:39:50;;;;;;;15.95;4.07;;;;;;;4.58;100.00;101280.22;5003397;28;20045;-71
2023/12/20 03:42:16;;;;;;;17.75;4.88;;;;;;;4.60;100.00;101270.66;5002564;28;20034;-73
2023/12/20 03:44:41;;;;;;;16.27;4.40;;;;;;;4.53;100.00;101282.28;5001267;28;20046;-73
2023/12/20 03:47:07;;;;;;;26.10;4.75;;;;;;;4.57;100.00;101288.03;5005893;28;20040;-72
2023/12/20 03:49:32;;;;;;;18.48;4.60;;;;;;;4.46;100.00;101296.44;5009161;28;20385;-72
2023/12/20 03:51:58;;;;;;;26.13;5.63;;;;;;;4.39;100.00;101298.63;5006831;28;20493;-72
2023/12/20 03:54:24;;;;;;;27.20;7.63;;;;;;;4.50;100.00;101303.03;5003434;28;20477;-71
2023/12/20 03:56:50;;;;;;;30.48;10.13;;;;;;;4.46;100.00;101299.03;4988463;28;20046;-73
2023/12/20 03:59:15;;;;;;;34.67;9.68;;;;;;;4.40;100.00;101299.44;5010101;28;20053;-73
2023/12/20 04:01:46;;;;;;;37.15;10.68;;;;;;;4.46;100.00;101288.75;5004559;28;20038;-73
2023/12/20 04:04:13;;;;;;;54.50;13.68;;;;;;;4.54;100.00;101273.66;5006669;28;20121;-73
2023/12/20 04:06:39;;;;;;;55.28;12.18;;;;;;;4.51;100.00;101273.03;5008518;28;20052;-72
2023/12/20 04:09:04;;;;;;;83.95;26.00;;;;;;;4.37;100.00;101269.66;4995595;28;20030;-73
2023/12/20 04:11:30;;;;;;;35.22;10.93;;;;;;;4.42;100.00;101264.22;4997980;28;20036;-73
2023/12/20 04:13:55;;;;;;;26.50;6.72;;;;;;;4.50;100.00;101277.34;5014446;28;20018;-71
2023/12/20 04:16:21;;;;;;;41.22;11.05;;;;;;;4.40;100.00;101279.72;5012278;28;20034;-72
2023/12/20 04:18:46;;;;;;;55.88;23.13;;;;;;;4.29;100.00;101284.75;5013032;28;20121;-73
2023/12/20 04:21:12;;;;;;;35.45;11.40;;;;;;;4.32;100.00;101288.88;5010413;28;20033;-73
2023/12/20 04:23:37;;;;;;;41.85;12.68;;;;;;;4.27;100.00;101297.69;5012185;28;20034;-72
2023/12/20 04:26:03;;;;;;;31.30;10.93;;;;;;;4.27;100.00;101309.72;5013998;28;20053;-73
2023/12/20 04:28:30;;;;;;;19.67;7.80;;;;;;;4.41;100.00;101298.53;5015025;28;20033;-73
2023/12/20 04:30:56;;;;;;;36.72;8.25;;;;;;;4.44;100.00;101301.69;5010178;28;20116;-72
2023/12/20 04:33:22;;;;;;;32.50;11.00;;;;;;;4.39;100.00;101306.34;4995249;28;20030;-73
2023/12/20 04:35:48;;;;;;;54.78;22.83;;;;;;;4.38;100.00;101299.53;4993688;28;20038;-72
2023/12/20 04:38:13;;;;;;;63.42;22.42;;;;;;;4.44;100.00;101293.97;5019973;28;20488;-71
2023/12/20 04:40:40;;;;;;;40.58;13.15;;;;;;;4.34;100.00;101297.28;5009255;28;20042;-73
2023/12/20 04:43:06;;;;;;;26.88;8.13;;;;;;;4.34;100.00;101294.72;5015005;28;20061;-73
2023/12/20 04:45:32;;;;;;;26.70;6.95;;;;;;;4.23;100.00;101298.81;5015378;28;20045;-73
2023/12/20 04:47:57;;;;;;;24.50;7.47;;;;;;;4.29;100.00;101298.44;5014574;28;20038;-73
2023/12/20 04:50:23;;;;;;;24.05;6.43;;;;;;;4.21;100.00;101310.94;5016244;28;20042;-73
2023/12/20 04:52:48;;;;;;;31.90;6.78;;;;;;;4.31;100.00;101306.00;5018247;28;20584;-73
2023/12/20 04:55:14;;;;;;;18.27;5.85;;;;;;;4.36;100.00;101316.78;5010574;28;20040;-73
2023/12/20 04:57:39;;;;;;;39.53;6.97;;;;;;;4.35;100.00;101307.47;5014296;28;20053;-73
2023/12/20 05:00:05;;;;;;;27.10;6.50;;;;;;;4.39;100.00;101298.63;5008431;28;20057;-72
2023/12/20 05:02:31;;;;;;;20.58;5.03;;;;;;;4.38;100.00;101298.72;5012326;28;20443;-73
2023/12/20 05:04:56;;;;;;;36.63;6.50;;;;;;;4.32;100.00;101310.22;5009830;28;20041;-72
2023/12/20 05:07:22;;;;;;;34.67;6.10;;;;;;;4.33;100.00;101303.34;5010982;28;20085;-73
2023/12/20 05:09:47;;;;;;;22.40;5.97;;;;;;;4.38;100.00;101303.88;5009949;28;20077;-73
2023/12/20 05:12:13;;;;;;;31.02;6.05;;;;;;;4.40;100.00;101304.56;5009667;28;20044;-73
2023/12/20 05:14:39;;;;;;;27.17;5.75;;;;;;;4.39;100.00;101293.50;5010227;28;20034;-73
2023/12/20 05:17:04;;;;;;;29.27;5.22;;;;;;;4.41;100.00;101296.78;5015332;28;20543;-72
2023/12/20 05:19:30;;;;;;;27.67;5.15;;;;;;;4.45;100.00;101298.22;5016058;28;20406;-73
2023/12/20 05:21:55;;;;;;;30.30;6.32;;;;;;;4.44;100.00;101296.53;5015246;28;20037;-72
2023/12/20 05:24:21;;;;;;;22.35;4.85;;;;;;;4.44;100.00;101291.41;5029787;28;20034;-73
2023/12/20 05:26:46;;;;;;;30.02;5.78;;;;;;;4.46;100.00;101299.03;5010748;28;20038;-72
2023/12/20 05:29:12;;;;;;;22.92;5.72;;;;;;;4.53;100.00;101300.25;5015427;28;20045;-73
2023/12/20 05:31:37;;;;;;;16.60;5.13;;;;;;;4.58;100.00;101287.94;5009918;28;20038;-73
2023/12/20 05:34:03;;;;;;;29.83;5.32;;;;;;;4.45;100.00;101285.38;5013159;28;20038;-73
2023/12/20 05:36:28;;;;;;;21.20;5.05;;;;;;;4.39;100.00;101280.66;5009926;28;20042;-73
2023/12/20 05:38:54;;;;;;;30.20;6.05;;;;;;;4.51;100.00;101291.84;5009955;28;20057;-73
2023/12/20 05:41:19;;;;;;;30.13;5.38;;;;;;;4.48;100.00;101290.31;5010129;28;20038;-72
2023/12/20 05:43:44;;;;;;;21.30;6.93;;;;;;;4.46;100.00;101286.19;5010452;28;20597;-71
2023/12/20 05:46:12;;;;;;;30.73;5.85;;;;;;;4.49;100.00;101291.94;5004564;28;20038;-73
2023/12/20 05:48:37;;;;;;;18.67;6.38;;;;;;;4.55;100.00;101295.00;5011275;28;20587;-73
2023/12/20 05:51:03;;;;;;;22.40;5.18;;;;;;;4.44;100.00;101283.72;5013025;28;20042;-73
2023/12/20 05:53:28;;;;;;;33.00;6.43;;;;;;;4.48;100.00;101290.31;5008686;28;20025;-73
2023/12/20 05:55:54;;;;;;;19.63;5.38;;;;;;;4.54;100.00;101293.34;5009537;28;20041;-72
2023/12/20 05:58:19;;;;;;;29.25;6.30;;;;;;;4.47;100.00;101301.50;5013036;28;20041;-73
2023/12/20 06:00:45;;;;;;;31.23;6.45;;;;;;;4.56;100.00;101287.22;5008873;28;20046;-73
2023/12/20 06:03:10;;;;;;;28.42;5.57;;;;;;;4.74;100.00;101305.66;5011363;28;20092;-73
2023/12/20 06:05:35;;;;;;;29.02;6.90;;;;;;;4.59;100.00;101299.00;5013557;28;20049;-73
2023/12/20 06:08:02;;;;;;;30.38;6.00;;;;;;;4.60;100.00;101298.09;4996958;28;20084;-73
2023/12/20 06:10:28;;;;;;;20.58;5.55;;;;;;;4.65;100.00;101299.44;5013818;28;20128;-74
2023/12/20 06:12:53;;;;;;;28.85;6.68;;;;;;;4.63;100.00;101296.16;4993056;28;20032;-71
2023/12/20 06:15:19;;;;;;;33.15;5.80;;;;;;;4.77;100.00;101305.47;5009974;28;20045;-73
2023/12/20 06:17:46;;;;;;;23.92;5.78;;;;;;;4.77;100.00;101296.94;5010414;28;21392;-72
2023/12/20 06:20:12;;;;;;;28.70;5.68;;;;;;;4.77;100.00;101302.09;4996940;28;20104;-73
2023/12/20 06:22:38;;;;;;;33.33;8.50;;;;;;;4.77;100.00;101302.91;5009256;28;20040;-73
2023/12/20 06:25:04;;;;;;;20.63;6.75;;;;;;;4.77;100.00;101305.47;5010442;28;20038;-72
2023/12/20 06:27:32;;;;;;;26.08;6.38;;;;;;;4.77;100.00;101302.09;4993143;28;20080;-73
2023/12/20 06:29:58;;;;;;;41.35;6.45;;;;;;;4.73;100.00;101306.59;5007942;28;20060;-73
2023/12/20 06:32:24;;;;;;;23.40;5.45;;;;;;;4.80;100.00;101307.84;5008484;28;20030;-73
2023/12/20 06:34:49;;;;;;;23.88;6.88;;;;;;;4.82;100.00;101298.25;4988773;28;20044;-73
2023/12/20 06:37:15;;;;;;;28.88;6.45;;;;;;;4.75;100.00;101298.81;5008363;28;20046;-74
2023/12/20 06:39:40;;;;;;;24.92;6.65;;;;;;;4.75;100.00;101301.38;5006937;28;20050;-73
2023/12/20 06:42:06;;;;;;;16.65;4.93;;;;;;;4.74;100.00;101299.72;5009885;28;20030;-73
2023/12/20 06:44:31;;;;;;;21.30;5.57;;;;;;;4.84;100.00;101298.13;5013261;28;20496;-74
2023/12/20 06:46:57;;;;;;;31.15;6.47;;;;;;;4.81;100.00;101298.38;5009752;28;20488;-73
2023/12/20 06:49:23;;;;;;;14.98;5.07;;;;;;;4.86;100.00;101291.97;5012033;28;20073;-74
2023/12/20 06:51:48;;;;;;;26.27;6.57;;;;;;;4.86;100.00;101297.13;5007547;28;20037;-73
2023/12/20 06:54:14;;;;;;;27.02;6.68;;;;;;;4.89;100.00;101293.50;5011174;28;20057;-72
2023/12/20 06:56:41;;;;;;;20.75;4.90;;;;;;;4.99;100.00;101285.97;5007958;28;20120;-74
2023/12/20 06:59:06;;;;;;;25.27;5.55;;;;;;;4.93;100.00;101286.41;5008691;28;20045;-74
2023/12/20 07:01:31;;;;;;;30.73;6.07;;;;;;;4.95;100.00;101279.41;5009756;28;20493;-74
2023/12/20 07:03:57;;;;;;;30.27;6.82;;;;;;;4.88;100.00;101282.41;5007077;28;20037;-73
2023/12/20 07:06:22;;;;;;;21.27;5.75;;;;;;;4.89;100.00;101285.78;5012268;28;20041;-73
2023/12/20 07:08:48;;;;;;;29.17;5.55;;;;;;;4.88;100.00;101282.41;5012996;28;20042;-73
2023/12/20 07:11:13;;;;;;;32.92;7.47;;;;;;;4.90;100.00;101281.47;5005201;28;20073;-73
2023/12/20 07:13:39;;;;;;;28.92;6.00;;;;;;;4.99;100.00;101281.66;5010902;28;20041;-75
2023/12/20 07:16:04;;;;;;;36.03;5.00;;;;;;;4.99;100.00;101288.53;5012229;28;20042;-75
2023/12/20 07:18:30;;;;;;;30.17;5.65;;;;;;;4.83;100.00;101286.22;5010761;28;20037;-73
2023/12/20 07:20:55;;;;;;;33.08;6.00;;;;;;;4.96;100.00;101278.50;5006732;28;20041;-73
2023/12/20 07:23:21;;;;;;;32.70;5.78;;;;;;;5.06;100.00;101292.31;5011065;28;20042;-73
2023/12/20 07:25:47;;;;;;;27.05;5.80;;;;;;;5.09;100.00;101296.44;5010482;28;20040;-73
2023/12/20 07:28:12;;;;;;;27.92;6.30;;;;;;;5.13;100.00;101287.59;5011212;28;20113;-74
2023/12/20 07:30:38;;;;;;;32.97;6.68;;;;;;;5.07;100.00;101287.09;5009105;28;20117;-74
2023/12/20 07:33:03;;;;;;;26.95;5.72;;;;;;;5.09;100.00;101286.97;5007421;28;20034;-73
2023/12/20 07:35:29;;;;;;;29.25;5.70;;;;;;;5.10;100.00;101293.75;5012874;28;20084;-73
2023/12/20 07:37:54;;;;;;;22.58;5.47;;;;;;;5.08;100.00;101295.59;5010255;28;20038;-73
2023/12/20 07:40:20;;;;;;;49.97;15.90;;;;;;;5.16;100.00;101292.50;5007728;28;20034;-74
2023/12/20 07:42:45;;;;;;;29.20;7.03;;;;;;;5.10;100.00;101298.06;5012974;28;20041;-73
2023/12/20 07:45:11;;;;;;;34.92;6.78;;;;;;;5.20;100.00;101297.31;5007867;28;20041;-73
2023/12/20 07:47:37;;;;;;;22.27;6.28;;;;;;;5.14;100.00;101295.19;5009515;28;20045;-74
2023/12/20 07:50:03;;;;;;;34.35;7.38;;;;;;;5.18;100.00;101294.03;5005847;28;20552;-73
2023/12/20 07:52:29;;;;;;;19.30;5.88;;;;;;;5.16;100.00;101279.63;5004115;28;20041;-73
2023/12/20 07:54:55;;;;;;;24.27;5.47;;;;;;;5.24;100.00;101282.50;5007751;28;20033;-73
2023/12/20 07:57:20;;;;;;;25.83;6.28;;;;;;;5.18;100.00;101283.75;5013257;28;21126;-73
2023/12/20 07:59:46;;;;;;;20.85;4.80;;;;;;;5.14;100.00;101294.34;5007068;28;20172;-73
2023/12/20 08:02:11;;;;;;;28.73;5.60;;;;;;;5.12;100.00;101280.78;5011666;28;20037;-73
2023/12/20 08:04:37;;;;;;;25.33;5.55;;;;;;;5.26;100.00;101289.16;5009620;28;20069;-74
2023/12/20 08:07:03;;;;;;;21.73;4.45;;;;;;;5.19;100.00;101287.97;5007595;28;20052;-74
2023/12/20 08:09:29;;;;;;;20.73;4.95;;;;;;;5.25;100.00;101289.28;4992154;28;20504;-73
2023/12/20 08:11:54;;;;;;;25.65;5.45;;;;;;;5.24;100.00;101301.31;5003215;28;20034;-73
2023/12/20 08:14:19;;;;;;;19.17;5.63;;;;;;;5.20;100.00;101297.31;4999799;28;20030;-73
2023/12/20 08:16:45;;;;;;;20.42;5.40;;;;;;;5.17;100.00;101292.38;5003244;28;20045;-73
2023/12/20 08:19:10;;;;;;;23.70;5.43;;;;;;;5.19;100.00;101297.44;5004067;28;20744;-73
2023/12/20 08:21:36;;;;;;;24.52;6.22;;;;;;;5.22;100.00;101295.47;5005786;28;20496;-75
2023/12/20 08:24:01;;;;;;;19.85;5.22;;;;;;;5.21;100.00;101301.53;5001510;28;20076;-73
2023/12/20 08:26:27;;;;;;;24.05;5.15;;;;;;;5.20;100.00;101299.91;5008655;28;20038;-73
2023/12/20 08:28:52;;;;;;;27.63;5.82;;;;;;;5.16;100.00;101300.19;5006799;28;20030;-73
2023/12/20 08:31:18;;;;;;;32.90;6.43;;;;;;;5.12;100.00;101297.03;5008870;28;20061;-73
2023/12/20 08:33:45;;;;;;;28.23;4.95;;;;;;;5.18;100.00;101294.03;5005115;28;20169;-73
2023/12/20 08:36:11;;;;;;;26.42;5.45;;;;;;;5.23;100.00;101301.41;5004614;28;20555;-73
2023/12/20 08:38:36;;;;;;;25.17;5.15;;;;;;;5.16;100.00;101301.03;5014070;28;20033;-73
2023/12/20 08:41:04;;;;;;;26.38;4.70;;;;;;;5.18;100.00;101306.06;5018273;28;20046;-73
2023/12/20 08:43:30;;;;;;;19.98;3.40;;;;;;;5.19;100.00;101308.53;5011448;28;20026;-73
2023/12/20 08:45:56;;;;;;;14.73;4.53;;;;;;;5.24;100.00;101303.06;5009452;28;20039;-73
2023/12/20 08:48:21;;;;;;;18.75;5.10;;;;;;;5.24;100.00;101298.75;5011159;28;20413;-73
2023/12/20 08:50:48;;;;;;;26.23;4.72;;;;;;;5.23;100.00;101299.66;5014524;28;20041;-73
2023/12/20 08:53:15;;;;;;;16.45;4.47;;;;;;;5.29;100.00;101310.44;5009436;28;20465;-72
2023/12/20 08:55:41;;;;;;;17.90;4.00;;;;;;;5.30;100.00;101300.06;5003656;28;20518;-74
2023/12/20 08:58:07;;;;;;;19.85;4.90;;;;;;;5.25;100.00;101309.84;5003615;28;20030;-73
2023/12/20 09:00:34;;;;;;;21.48;4.15;;;;;;;5.21;100.00;101301.53;5007059;28;20104;-73
2023/12/20 09:02:59;;;;;;;23.90;4.35;;;;;;;5.14;100.00;101300.34;5013976;28;20030;-73
2023/12/20 09:05:25;;;;;;;21.42;5.25;;;;;;;5.19;100.00;101305.16;5011514;28;20062;-74
2023/12/20 09:07:50;;;;;;;18.63;3.78;;;;;;;5.18;100.00;101288.91;5009433;28;20037;-74
2023/12/20 09:10:16;;;;;;;17.58;4.32;;;;;;;5.28;100.00;101283.91;5011440;28;20460;-73
2023/12/20 09:12:42;;;;;;;21.13;3.88;;;;;;;5.22;100.00;101286.94;5011777;28;20022;-73
2023/12/20 09:15:08;;;;;;;25.88;4.45;;;;;;;5.18;100.00;101283.75;5008125;28;20052;-73
2023/12/20 09:17:33;;;;;;;23.73;3.88;;;;;;;5.25;100.00;101281.56;5011522;28;20045;-73
2023/12/20 09:19:59;;;;;;;30.48;4.35;;;;;;;5.26;100.00;101278.88;5003062;28;20034;-73
2023/12/20 09:22:25;;;;;;;20.65;3.80;;;;;;;5.24;100.00;101282.50;5002626;28;20042;-74
2023/12/20 09:24:51;;;;;;;22.17;3.55;;;;;;;5.28;100.00;101283.09;5000472;28;20138;-74
2023/12/20 09:27:16;;;;;;;27.05;3.80;;;;;;;5.32;100.00;101277.63;5006075;28;20034;-73
2023/12/20 09:29:42;;;;;;;20.70;3.85;;;;;;;5.37;100.00;101278.13;5001227;28;20100;-73
2023/12/20 09:32:07;;;;;;;18.52;3.88;;;;;;;5.42;100.00;101286.31;5002933;28;20781;-73
2023/12/20 09:34:33;;;;;;;14.30;2.97;;;;;;;5.47;100.00;101273.94;5008109;28;20038;-73
2023/12/20 09:36:59;;;;;;;19.45;3.90;;;;;;;5.40;100.00;101280.44;5007559;28;20030;-73
2023/12/20 09:39:24;;;;;;;32.38;3.45;;;;;;;5.47;100.00;101273.13;5007476;28;20038;-74
2023/12/20 09:42:04;;;;;;;17.75;4.22;;;;;;;5.48;100.00;101269.59;5007743;28;20045;-73
2023/12/20 09:44:31;;;;;;;25.33;3.70;;;;;;;5.54;100.00;101276.06;4999717;28;20053;-74
2023/12/20 09:46:57;;;;;;;21.60;3.85;;;;;;;5.56;100.00;101294.81;5001543;28;20036;-74
2023/12/20 09:49:23;;;;;;;23.75;4.00;;;;;;;5.48;100.00;101287.63;5000866;28;20044;-73
2023/12/20 09:51:50;;;;;;;19.33;3.38;;;;;;;5.58;100.00;101286.03;5002696;28;20046;-74
2023/12/20 09:54:21;;;;;;;25.42;4.55;;;;;;;5.54;100.00;101283.78;4984359;28;20087;-74
2023/12/20 09:56:46;;;;;;;23.00;5.15;;;;;;;5.44;100.00;101289.63;5004703;28;20049;-73
2023/12/20 09:59:13;;;;;;;25.05;4.05;;;;;;;5.52;100.00;101290.78;5008283;28;20045;-73
2023/12/20 10:01:39;;;;;;;22.98;3.95;;;;;;;5.54;100.00;101296.63;5007157;28;20535;-74
2023/12/20 10:04:09;;;;;;;18.58;3.40;;;;;;;5.56;100.00;101299.94;5016222;28;20038;-74
2023/12/20 10:06:44;;;;;;;22.40;3.80;;;;;;;5.52;100.00;101298.50;4984191;28;20042;-73
2023/12/20 10:09:11;;;;;;;12.85;2.70;;;;;;;5.59;100.00;101290.22;5002386;28;20112;-73
2023/12/20 10:11:37;;;;;;;20.33;3.40;;;;;;;5.62;100.00;101296.91;5008305;28;20046;-74
2023/12/20 10:14:03;;;;;;;26.95;3.40;;;;;;;5.56;100.00;101289.66;5003133;28;20027;-74
2023/12/20 10:16:29;;;;;;;24.05;3.13;;;;;;;5.60;100.00;101281.59;5005768;28;20388;-73
2023/12/20 10:18:56;;;;;;;16.70;3.42;;;;;;;5.60;100.00;101288.50;4999663;28;20041;-76
2023/12/20 10:21:26;;;;;;;19.38;4.32;;;;;;;5.70;100.00;101275.78;5002053;28;20592;-74
2023/12/20 10:23:53;;;;;;;16.05;4.07;;;;;;;5.68;100.00;101270.75;5007261;28;20042;-74
2023/12/20 10:26:22;;;;;;;23.33;4.55;;;;;;;5.76;100.00;101283.03;5003028;28;20042;-73
2023/12/20 10:28:53;;;;;;;23.13;3.33;;;;;;;5.78;100.00;101276.03;5005077;28;20036;-73
2023/12/20 10:31:45;;;;;;;25.08;3.78;;;;;;;5.84;100.00;101271.25;5005925;28;20535;-74
2023/12/20 10:34:10;;;;;;;19.15;3.45;;;;;;;5.91;100.00;101261.31;5000376;28;20054;-73
2023/12/20 10:36:36;;;;;;;45.10;5.35;;;;;;;5.87;100.00;101247.03;5002411;28;20034;-74
2023/12/20 10:39:02;;;;;;;23.10;3.60;;;;;;;5.92;100.00;101251.84;5004782;28;20038;-73
2023/12/20 10:41:30;;;;;;;17.02;3.40;;;;;;;5.96;100.00;101245.56;5004340;28;20038;-74
2023/12/20 10:44:04;;;;;;;18.00;4.47;;;;;;;6.05;100.00;101250.03;5005932;28;20022;-74
2023/12/20 10:46:32;;;;;;;23.88;3.63;;;;;;;6.03;100.00;101241.59;5000215;28;20034;-74
2023/12/20 10:48:57;;;;;;;16.73;3.45;;;;;;;6.08;100.00;101242.06;5004220;28;20611;-73
2023/12/20 10:51:26;;;;;;;26.00;4.47;;;;;;;6.03;100.00;101239.03;5004281;28;20045;-73
2023/12/20 10:53:52;;;;;;;19.50;3.22;;;;;;;6.01;100.00;101246.88;5004159;28;20099;-73
2023/12/20 10:56:18;;;;;;;18.08;3.88;;;;;;;5.98;100.00;101241.13;5002881;28;20137;-73
2023/12/20 10:58:47;;;;;;;19.27;3.47;;;;;;;6.06;100.00;101250.84;5006497;28;20065;-73
2023/12/20 11:01:14;;;;;;;13.20;2.85;;;;;;;6.06;100.00;101246.50;5002209;28;20057;-73
2023/12/20 11:03:50;;;;;;;23.98;3.78;;;;;;;6.10;100.00;101255.63;5004270;28;20030;-73
2023/12/20 11:06:56;;;;;;;20.90;4.05;;;;;;;6.09;100.00;101245.47;5003019;28;20560;-73
2023/12/20 11:09:49;;;;;;;19.45;3.03;;;;;;;6.01;100.00;101254.59;5001136;28;20030;-73
2023/12/20 11:12:56;;;;;;;24.88;5.82;;;;;;;5.96;100.00;101241.22;5005301;28;20077;-73